Time;durP1;ratioP1;P1;durP2;ratioP2;P2;SDS_P1;SDS_P2;PMS_P1;PMS_P2;Temp;Humidity;BMP_temperature;BMP_pressure;BME280_temperature;BME280_humidity;BME280_pressure;Samples;Min_cycle;Max_cycle;Signal;HPM_P1;HPM_P2
2021/04/09 00:03:28;;;;;;;;;;;0.90;99.90;;;;;;10489164;28;20442;-67
2021/04/09 00:08:29;;;;;;;;;;;0.80;99.90;;;;;;10472828;28;19971;-67
2021/04/09 00:13:31;;;;;;;;;;;0.80;99.90;;;;;;10504606;28;19975;-67
2021/04/09 00:18:32;;;;;;;;;;;0.70;99.90;;;;;;10475425;28;19975;-67
2021/04/09 00:23:34;;;;;;;;;;;0.70;99.90;;;;;;10486181;28;20471;-67
2021/04/09 00:28:35;;;;;;;;;;;0.80;99.90;;;;;;10468293;28;19925;-67
2021/04/09 00:33:36;;;;;;;;;;;0.80;99.90;;;;;;10460833;28;19924;-67
2021/04/09 00:38:38;;;;;;;;;;;0.80;99.90;;;;;;10486126;28;20005;-67
2021/04/09 00:43:40;;;;;;;;;;;0.70;99.90;;;;;;10487381;28;20002;-67
2021/04/09 00:48:41;;;;;;;;;;;0.60;99.90;;;;;;10473437;28;19924;-67
2021/04/09 00:53:43;;;;;;;;;;;0.50;99.90;;;;;;10473177;28;19967;-67
2021/04/09 00:58:45;;;;;;;;;;;0.40;99.90;;;;;;10518950;28;19955;-67
2021/04/09 01:03:46;;;;;;;;;;;0.40;99.90;;;;;;10470141;28;20442;-67
2021/04/09 01:08:48;;;;;;;;;;;0.30;99.90;;;;;;10489877;28;20022;-67
2021/04/09 01:13:50;;;;;;;;;;;0.30;99.90;;;;;;10479915;28;20320;-67
2021/04/09 01:19:11;;;;;;;;;;;0.30;99.90;;;;;;10484137;28;19950;-67
2021/04/09 01:24:15;;;;;;;;;;;0.30;99.90;;;;;;10487062;28;19998;-67
2021/04/09 01:29:19;;;;;;;;;;;0.30;99.90;;;;;;10486430;28;20421;-67
2021/04/09 01:34:22;;;;;;;;;;;0.30;99.90;;;;;;10485590;28;19954;-67
2021/04/09 01:39:47;;;;;;;;;;;0.30;99.90;;;;;;10487219;28;20011;-67
2021/04/09 01:44:50;;;;;;;;;;;0.30;99.90;;;;;;10486200;28;20006;-67
2021/04/09 01:49:54;;;;;;;;;;;0.20;99.90;;;;;;10486819;28;19924;-67
2021/04/09 01:54:56;;;;;;;;;;;0.20;99.90;;;;;;10485385;28;19920;-67
2021/04/09 01:59:58;;;;;;;;;;;0.20;99.90;;;;;;10485744;28;19970;-67
2021/04/09 02:05:00;;;;;;;;;;;0.20;99.90;;;;;;10499817;28;19920;-67
2021/04/09 02:10:03;;;;;;;;;;;0.10;99.90;;;;;;10507915;28;20042;-67
2021/04/09 02:15:12;;;;;;;;;;;0.10;99.90;;;;;;10507192;28;20208;-67
2021/04/09 02:20:15;;;;;;;;;;;0.10;99.90;;;;;;10506804;28;19963;-67
2021/04/09 02:25:19;;;;;;;;;;;0.00;99.90;;;;;;10507032;28;20006;-67
2021/04/09 02:30:21;;;;;;;;;;;0.00;99.90;;;;;;10506657;28;19924;-67
2021/04/09 02:35:23;;;;;;;;;;;-0.10;99.90;;;;;;10507560;28;20387;-67
2021/04/09 02:40:27;;;;;;;;;;;-0.10;99.90;;;;;;10507347;28;19974;-67
2021/04/09 02:45:28;;;;;;;;;;;-0.20;99.90;;;;;;10506704;28;19920;-67
2021/04/09 02:50:31;;;;;;;;;;;-0.20;99.90;;;;;;10506971;28;20299;-67
2021/04/09 02:55:34;;;;;;;;;;;-0.30;99.90;;;;;;10506672;28;19959;-67
2021/04/09 03:00:36;;;;;;;;;;;-0.30;99.90;;;;;;10504653;28;19963;-67
2021/04/09 03:05:41;;;;;;;;;;;-0.30;99.90;;;;;;10502093;28;19978;-67
2021/04/09 03:10:43;;;;;;;;;;;-0.30;99.90;;;;;;10501331;28;19963;-67
2021/04/09 03:15:49;;;;;;;;;;;-0.40;99.90;;;;;;10464022;28;20460;-67
2021/04/09 03:20:50;;;;;;;;;;;-0.40;99.90;;;;;;10492813;28;20022;-67
2021/04/09 03:25:52;;;;;;;;;;;-0.40;99.90;;;;;;10491506;28;19963;-67
2021/04/09 03:30:54;;;;;;;;;;;-0.40;99.90;;;;;;10492187;28;19924;-67
2021/04/09 03:35:57;;;;;;;;;;;-0.50;99.90;;;;;;10492544;28;20172;-67
2021/04/09 03:40:58;;;;;;;;;;;-0.50;99.90;;;;;;10492103;28;20020;-67
2021/04/09 03:45:59;;;;;;;;;;;-0.50;99.90;;;;;;10488956;28;20004;-67
2021/04/09 03:51:02;;;;;;;;;;;-0.50;99.90;;;;;;10492253;28;19924;-67
2021/04/09 03:56:03;;;;;;;;;;;-0.60;99.90;;;;;;10491378;28;20016;-67
2021/04/09 04:01:04;;;;;;;;;;;-0.60;99.90;;;;;;10489743;28;19924;-67
2021/04/09 04:06:06;;;;;;;;;;;-0.70;99.90;;;;;;10491374;28;19920;-67
2021/04/09 04:11:07;;;;;;;;;;;-0.70;99.90;;;;;;10491075;28;19966;-67
2021/04/09 04:16:08;;;;;;;;;;;-0.80;99.90;;;;;;10490175;28;19924;-67
2021/04/09 04:21:10;;;;;;;;;;;-0.80;99.90;;;;;;10490832;28;19967;-67
2021/04/09 04:26:11;;;;;;;;;;;-0.90;99.90;;;;;;10490374;28;19930;-67
2021/04/09 04:31:12;;;;;;;;;;;-0.90;99.90;;;;;;10488999;28;19963;-67
2021/04/09 04:36:14;;;;;;;;;;;-0.90;99.90;;;;;;10489809;28;20232;-67
2021/04/09 04:41:15;;;;;;;;;;;-0.80;99.90;;;;;;10489957;28;20007;-67
2021/04/09 04:46:17;;;;;;;;;;;-0.60;99.90;;;;;;10486768;28;19924;-67
2021/04/09 04:51:19;;;;;;;;;;;-0.60;99.90;;;;;;10489445;28;19973;-67
2021/04/09 04:56:20;;;;;;;;;;;-0.50;99.90;;;;;;10489458;28;19927;-67
2021/04/09 05:01:22;;;;;;;;;;;-0.50;99.90;;;;;;10488344;28;19924;-67
2021/04/09 05:06:23;;;;;;;;;;;-0.60;99.90;;;;;;10488607;28;20356;-67
2021/04/09 05:11:24;;;;;;;;;;;-0.60;99.90;;;;;;10488032;28;19997;-67
2021/04/09 05:16:25;;;;;;;;;;;-0.50;99.90;;;;;;10487290;28;19956;-67
2021/04/09 05:21:27;;;;;;;;;;;-0.30;99.90;;;;;;10487830;28;19924;-67
2021/04/09 05:26:28;;;;;;;;;;;-0.30;99.90;;;;;;10487933;28;20018;-67
2021/04/09 05:31:32;;;;;;;;;;;-0.10;99.90;;;;;;10486906;28;19967;-67
2021/04/09 05:36:33;;;;;;;;;;;0.10;99.90;;;;;;10487821;28;19924;-67
2021/04/09 05:41:35;;;;;;;;;;;0.30;99.90;;;;;;10487110;28;19926;-67
2021/04/09 05:46:36;;;;;;;;;;;0.50;99.90;;;;;;10487041;28;20023;-67
2021/04/09 05:51:37;;;;;;;;;;;0.50;99.90;;;;;;10487589;28;20391;-68
2021/04/09 05:56:38;;;;;;;;;;;0.70;99.90;;;;;;10487662;28;19966;-67
2021/04/09 06:01:40;;;;;;;;;;;0.90;99.90;;;;;;10487029;28;20009;-68
2021/04/09 06:06:42;;;;;;;;;;;1.20;99.90;;;;;;10487660;28;20357;-67
2021/04/09 06:11:43;;;;;;;;;;;1.40;99.90;;;;;;10486813;28;20018;-67
2021/04/09 06:16:44;;;;;;;;;;;1.50;99.90;;;;;;10488019;28;19920;-67
2021/04/09 06:21:46;;;;;;;;;;;1.60;99.90;;;;;;10487107;28;19924;-67
2021/04/09 06:26:47;;;;;;;;;;;1.70;99.90;;;;;;10486571;28;20448;-67
2021/04/09 06:31:48;;;;;;;;;;;1.90;99.90;;;;;;10486293;28;20019;-67
2021/04/09 06:36:50;;;;;;;;;;;2.10;99.90;;;;;;10485479;28;20601;-68
2021/04/09 06:41:53;;;;;;;;;;;2.30;99.90;;;;;;10464016;28;19921;-68
2021/04/09 06:46:54;;;;;;;;;;;2.60;99.90;;;;;;10451735;28;19960;-67
2021/04/09 06:51:55;;;;;;;;;;;2.70;99.90;;;;;;10489040;28;19950;-68
2021/04/09 06:56:58;;;;;;;;;;;3.00;99.90;;;;;;10492569;28;20403;-68
2021/04/09 07:02:02;;;;;;;;;;;3.10;99.90;;;;;;10490769;28;19999;-68
2021/04/09 07:07:08;;;;;;;;;;;3.20;99.90;;;;;;10485872;28;19944;-68
2021/04/09 07:12:24;;;;;;;;;;;3.50;99.90;;;;;;10473928;28;19926;-68
2021/04/09 07:17:28;;;;;;;;;;;3.50;99.90;;;;;;10491827;28;19920;-68
2021/04/09 07:22:33;;;;;;;;;;;3.80;99.90;;;;;;10477582;28;19924;-68
2021/04/09 07:27:36;;;;;;;;;;;3.70;99.90;;;;;;10481777;28;20035;-68
2021/04/09 07:32:38;;;;;;;;;;;4.20;99.90;;;;;;10491103;28;20407;-68
2021/04/09 07:37:49;;;;;;;;;;;4.40;99.90;;;;;;10489974;28;20338;-68
2021/04/09 07:42:51;;;;;;;;;;;4.80;99.90;;;;;;10451269;28;20011;-68
2021/04/09 07:47:58;;;;;;;;;;;5.50;99.90;;;;;;10512116;28;19920;-68
2021/04/09 07:53:00;;;;;;;;;;;6.20;98.10;;;;;;10490559;28;20370;-68
2021/04/09 07:58:32;;;;;;;;;;;6.60;95.20;;;;;;10472027;28;20016;-68
2021/04/09 08:03:39;;;;;;;;;;;6.90;92.60;;;;;;10484539;28;20022;-68
2021/04/09 08:08:55;;;;;;;;;;;7.40;91.40;;;;;;10490825;28;19924;-68
2021/04/09 08:14:08;;;;;;;;;;;7.90;86.50;;;;;;10489189;28;19963;-68
2021/04/09 08:19:16;;;;;;;;;;;8.10;81.00;;;;;;10488965;28;19946;-68
2021/04/09 08:24:19;;;;;;;;;;;8.10;79.90;;;;;;10485486;28;19986;-68
2021/04/09 08:29:22;;;;;;;;;;;8.60;77.30;;;;;;10467213;28;19963;-68
2021/04/09 08:34:23;;;;;;;;;;;9.40;73.20;;;;;;10487780;28;19924;-68
2021/04/09 08:39:24;;;;;;;;;;;9.70;69.40;;;;;;10482577;28;20328;-69
2021/04/09 08:44:26;;;;;;;;;;;10.00;66.50;;;;;;10472908;28;19971;-68
2021/04/09 08:49:28;;;;;;;;;;;10.20;63.00;;;;;;10485113;28;19920;-68
2021/04/09 08:54:30;;;;;;;;;;;10.50;61.60;;;;;;10486923;28;19932;-69
2021/04/09 08:59:38;;;;;;;;;;;11.10;57.70;;;;;;10500735;28;19924;-69
2021/04/09 09:04:40;;;;;;;;;;;11.50;58.20;;;;;;10484268;28;19989;-69
2021/04/09 09:09:42;;;;;;;;;;;11.70;55.90;;;;;;10461717;28;20006;-69
2021/04/09 09:14:44;;;;;;;;;;;11.90;53.20;;;;;;10447198;28;20007;-69
2021/04/09 09:19:49;;;;;;;;;;;12.20;51.00;;;;;;10473461;28;20412;-69
2021/04/09 09:25:00;;;;;;;;;;;12.40;49.60;;;;;;10482286;28;19920;-69
2021/04/09 09:30:02;;;;;;;;;;;12.40;48.00;;;;;;10484579;28;19947;-69
2021/04/09 09:35:03;;;;;;;;;;;12.00;47.80;;;;;;10484938;28;19920;-69
2021/04/09 09:40:06;;;;;;;;;;;12.40;47.10;;;;;;10477873;28;20015;-69
2021/04/09 09:45:09;;;;;;;;;;;12.70;46.40;;;;;;10464712;28;19924;-69
2021/04/09 09:50:20;;;;;;;;;;;13.00;45.60;;;;;;10479793;28;19920;-69
2021/04/09 09:55:25;;;;;;;;;;;13.10;44.90;;;;;;10484542;28;20383;-69
2021/04/09 10:00:26;;;;;;;;;;;12.90;45.00;;;;;;10484458;28;20023;-69
2021/04/09 10:05:28;;;;;;;;;;;13.20;43.70;;;;;;10485512;28;20018;-69
2021/04/09 10:10:36;;;;;;;;;;;13.40;43.90;;;;;;10473898;28;19959;-62
2021/04/09 10:15:38;;;;;;;;;;;13.60;43.40;;;;;;10477139;28;19951;-61
2021/04/09 10:20:39;;;;;;;;;;;13.80;42.80;;;;;;10485272;28;20112;-61
2021/04/09 10:25:40;;;;;;;;;;;14.10;42.60;;;;;;10481439;28;20027;-61
2021/04/09 10:30:42;;;;;;;;;;;14.00;41.40;;;;;;10493299;28;20383;-61
2021/04/09 10:35:43;;;;;;;;;;;13.80;41.10;;;;;;10492884;28;20425;-61
2021/04/09 10:40:54;;;;;;;;;;;14.00;41.20;;;;;;10492468;28;20014;-61
2021/04/09 10:46:25;;;;;;;;;;;14.30;40.80;;;;;;10479488;28;20243;-61
2021/04/09 10:51:28;;;;;;;;;;;14.30;41.20;;;;;;10454203;28;19927;-61
2021/04/09 10:56:48;;;;;;;;;;;14.20;40.90;;;;;;10484715;28;20011;-61
2021/04/09 11:01:51;;;;;;;;;;;14.10;39.70;;;;;;10469304;28;19920;-61
2021/04/09 11:06:54;;;;;;;;;;;13.90;39.50;;;;;;10491465;28;19920;-61
2021/04/09 11:11:56;;;;;;;;;;;13.80;39.00;;;;;;10491705;28;19920;-61
2021/04/09 11:16:58;;;;;;;;;;;13.90;39.30;;;;;;10499598;28;19924;-61
2021/04/09 11:22:19;;;;;;;;;;;13.90;39.50;;;;;;10499218;28;20375;-61
2021/04/09 11:27:21;;;;;;;;;;;13.90;39.10;;;;;;10490973;28;20011;-59
2021/04/09 11:32:23;;;;;;;;;;;14.10;39.20;;;;;;10491593;28;20406;-59
2021/04/09 11:37:24;;;;;;;;;;;14.30;38.40;;;;;;10489691;28;19989;-59
2021/04/09 11:42:32;;;;;;;;;;;14.60;38.60;;;;;;10490282;28;20011;-59
2021/04/09 11:47:35;;;;;;;;;;;14.70;38.20;;;;;;10491648;28;19920;-59
2021/04/09 11:52:55;;;;;;;;;;;14.80;37.70;;;;;;10472807;28;19928;-59
2021/04/09 11:57:57;;;;;;;;;;;14.40;37.40;;;;;;10458396;28;19932;-59
2021/04/09 12:03:01;;;;;;;;;;;14.50;37.50;;;;;;10468389;28;20011;-59
2021/04/09 12:08:04;;;;;;;;;;;14.60;36.60;;;;;;10477009;28;20359;-59
2021/04/09 12:13:05;;;;;;;;;;;14.70;36.80;;;;;;10468977;28;20003;-59
2021/04/09 12:18:07;;;;;;;;;;;14.60;36.10;;;;;;10466564;28;19928;-59
2021/04/09 12:23:11;;;;;;;;;;;14.70;36.40;;;;;;10474716;28;19989;-59
2021/04/09 12:28:13;;;;;;;;;;;14.90;35.60;;;;;;10460565;28;20428;-59
2021/04/09 12:33:14;;;;;;;;;;;14.80;36.00;;;;;;10504394;28;20024;-59
2021/04/09 12:38:15;;;;;;;;;;;15.00;35.10;;;;;;10475106;28;20246;-59
2021/04/09 12:43:16;;;;;;;;;;;15.30;36.00;;;;;;10485303;28;19957;-59
2021/04/09 12:48:18;;;;;;;;;;;15.40;35.30;;;;;;10480737;28;20261;-59
2021/04/09 12:53:19;;;;;;;;;;;15.20;35.50;;;;;;10477642;28;19927;-59
2021/04/09 12:58:20;;;;;;;;;;;15.30;36.40;;;;;;10475077;28;20027;-59
2021/04/09 13:03:22;;;;;;;;;;;15.20;35.20;;;;;;10481328;28;20020;-59
2021/04/09 13:08:23;;;;;;;;;;;15.40;36.50;;;;;;10464621;28;20436;-59
2021/04/09 13:13:28;;;;;;;;;;;15.10;35.80;;;;;;10457006;28;19963;-59
2021/04/09 13:18:29;;;;;;;;;;;15.00;36.00;;;;;;10447206;28;20023;-59
2021/04/09 13:23:31;;;;;;;;;;;14.80;36.10;;;;;;10454972;28;20174;-59
2021/04/09 13:28:32;;;;;;;;;;;14.70;35.80;;;;;;10479845;28;20039;-59
2021/04/09 13:33:35;;;;;;;;;;;14.50;36.00;;;;;;10484372;28;19965;-59
2021/04/09 13:38:36;;;;;;;;;;;14.50;36.50;;;;;;10465834;28;19920;-59
2021/04/09 13:43:38;;;;;;;;;;;14.50;36.40;;;;;;10479177;28;19925;-59
2021/04/09 13:48:44;;;;;;;;;;;14.50;36.70;;;;;;10473337;28;20435;-59
2021/04/09 13:53:46;;;;;;;;;;;14.50;36.40;;;;;;10472493;28;19968;-59
2021/04/09 13:58:49;;;;;;;;;;;14.60;36.60;;;;;;10450022;28;20385;-62
2021/04/09 14:03:51;;;;;;;;;;;14.80;36.70;;;;;;10483845;28;20372;-61
2021/04/09 14:08:53;;;;;;;;;;;15.20;36.70;;;;;;10485069;28;20264;-61
2021/04/09 14:13:54;;;;;;;;;;;15.10;36.20;;;;;;10486609;28;20007;-61
2021/04/09 14:18:55;;;;;;;;;;;15.00;36.30;;;;;;10485414;28;19959;-61
2021/04/09 14:23:57;;;;;;;;;;;15.10;36.00;;;;;;10485974;28;20379;-61
2021/04/09 14:28:58;;;;;;;;;;;15.40;36.60;;;;;;10484233;28;19920;-61
2021/04/09 14:34:00;;;;;;;;;;;15.50;35.60;;;;;;10486548;28;19968;-61
2021/04/09 14:39:02;;;;;;;;;;;15.50;36.50;;;;;;10485516;28;20326;-61
2021/04/09 14:44:03;;;;;;;;;;;15.40;35.70;;;;;;10485496;28;20016;-61
2021/04/09 14:49:05;;;;;;;;;;;15.40;35.90;;;;;;10484661;28;19959;-61
2021/04/09 14:54:06;;;;;;;;;;;15.20;36.00;;;;;;10486320;28;19999;-62
2021/04/09 14:59:21;;;;;;;;;;;15.40;36.00;;;;;;10483179;28;20380;-61
2021/04/09 15:04:23;;;;;;;;;;;15.40;35.60;;;;;;10485617;28;20190;-61
2021/04/09 15:09:24;;;;;;;;;;;15.20;35.50;;;;;;10486025;28;20420;-61
2021/04/09 15:14:25;;;;;;;;;;;15.10;35.30;;;;;;10490473;28;20501;-61
2021/04/09 15:19:28;;;;;;;;;;;14.90;35.30;;;;;;10492278;28;19975;-61
2021/04/09 15:24:30;;;;;;;;;;;14.70;35.00;;;;;;10491455;28;19956;-61
2021/04/09 15:29:32;;;;;;;;;;;14.90;35.50;;;;;;10492253;28;19990;-62
2021/04/09 15:34:33;;;;;;;;;;;14.80;34.90;;;;;;10486793;28;20368;-62
2021/04/09 15:39:35;;;;;;;;;;;14.90;34.50;;;;;;10486283;28;19921;-62
2021/04/09 15:44:37;;;;;;;;;;;14.90;34.10;;;;;;10486444;28;19920;-62
2021/04/09 15:49:39;;;;;;;;;;;14.90;34.10;;;;;;10489315;28;19942;-62
2021/04/09 15:54:41;;;;;;;;;;;15.00;34.20;;;;;;10486466;28;20325;-61
2021/04/09 15:59:44;;;;;;;;;;;14.90;33.90;;;;;;10475426;28;19924;-61
2021/04/09 16:04:45;;;;;;;;;;;14.80;33.50;;;;;;10489146;28;19959;-61
2021/04/09 16:09:47;;;;;;;;;;;14.70;33.50;;;;;;10488011;28;19920;-61
2021/04/09 16:14:49;;;;;;;;;;;14.70;33.40;;;;;;10488103;28;19924;-61
2021/04/09 16:19:50;;;;;;;;;;;14.50;34.10;;;;;;10489583;28;19981;-61
2021/04/09 16:24:51;;;;;;;;;;;14.40;34.40;;;;;;10498079;28;20455;-61
2021/04/09 16:29:53;;;;;;;;;;;14.40;34.70;;;;;;10502765;28;20018;-61
2021/04/09 16:34:55;;;;;;;;;;;14.50;34.50;;;;;;10489818;28;20033;-61
2021/04/09 16:39:59;;;;;;;;;;;14.40;34.50;;;;;;10488753;28;19924;-61
2021/04/09 16:45:00;;;;;;;;;;;14.10;34.90;;;;;;10487017;28;19924;-61
2021/04/09 16:50:02;;;;;;;;;;;14.00;34.50;;;;;;10487831;28;19991;-61
2021/04/09 16:55:05;;;;;;;;;;;14.00;35.00;;;;;;10488075;28;19937;-61
2021/04/09 17:00:10;;;;;;;;;;;14.10;35.40;;;;;;10487613;28;20412;-61
2021/04/09 17:05:12;;;;;;;;;;;14.20;35.20;;;;;;10487138;28;19986;-61
2021/04/09 17:10:14;;;;;;;;;;;14.10;35.90;;;;;;10487481;28;19998;-61
2021/04/09 17:15:16;;;;;;;;;;;14.00;36.00;;;;;;10485442;28;19964;-61
2021/04/09 17:20:19;;;;;;;;;;;14.00;36.30;;;;;;10472033;28;20015;-61
2021/04/09 17:25:20;;;;;;;;;;;13.90;36.30;;;;;;10479370;28;20442;-61
2021/04/09 17:30:22;;;;;;;;;;;13.80;36.50;;;;;;10471827;28;20347;-61
2021/04/09 17:35:23;;;;;;;;;;;13.60;37.20;;;;;;10451948;28;19947;-61
2021/04/09 17:40:25;;;;;;;;;;;13.30;37.80;;;;;;10494306;28;20027;-61
2021/04/09 17:45:27;;;;;;;;;;;13.20;38.60;;;;;;10455141;28;19920;-61
2021/04/09 17:50:28;;;;;;;;;;;12.90;37.80;;;;;;10481869;28;20336;-61
2021/04/09 17:55:31;;;;;;;;;;;12.80;39.30;;;;;;10470180;28;20295;-61
2021/04/09 18:00:33;;;;;;;;;;;12.60;39.90;;;;;;10507258;28;20299;-61
2021/04/09 18:05:34;;;;;;;;;;;12.40;40.40;;;;;;10478219;28;19921;-61
2021/04/09 18:10:36;;;;;;;;;;;12.20;41.60;;;;;;10449093;28;19925;-61
2021/04/09 18:15:37;;;;;;;;;;;12.10;41.80;;;;;;10451310;28;19925;-61
2021/04/09 18:20:38;;;;;;;;;;;12.00;42.30;;;;;;10481226;28;20458;-61
2021/04/09 18:25:41;;;;;;;;;;;12.00;42.60;;;;;;10473898;28;19971;-61
2021/04/09 18:30:51;;;;;;;;;;;12.00;43.00;;;;;;10483467;28;20378;-61
2021/04/09 18:35:53;;;;;;;;;;;12.00;43.50;;;;;;10485275;28;20015;-61
2021/04/09 18:40:55;;;;;;;;;;;11.90;44.10;;;;;;10486566;28;19920;-61
2021/04/09 18:45:56;;;;;;;;;;;11.80;44.50;;;;;;10486112;28;20143;-61
2021/04/09 18:50:57;;;;;;;;;;;11.70;45.90;;;;;;10494149;28;19978;-65
2021/04/09 18:56:00;;;;;;;;;;;11.50;46.50;;;;;;10493742;28;19920;-65
2021/04/09 19:01:01;;;;;;;;;;;11.30;45.90;;;;;;10474978;28;20003;-65
2021/04/09 19:06:03;;;;;;;;;;;11.30;46.20;;;;;;10472433;28;20011;-65
2021/04/09 19:11:04;;;;;;;;;;;11.50;46.20;;;;;;10479555;28;20015;-65
2021/04/09 19:16:05;;;;;;;;;;;11.70;46.40;;;;;;10492322;28;19920;-65
2021/04/09 19:21:07;;;;;;;;;;;11.70;46.60;;;;;;10492523;28;19920;-65
2021/04/09 19:26:09;;;;;;;;;;;11.70;47.00;;;;;;10492164;28;19942;-66
2021/04/09 19:31:10;;;;;;;;;;;11.70;47.30;;;;;;10491473;28;19986;-65
2021/04/09 19:36:11;;;;;;;;;;;11.70;47.30;;;;;;10492026;28;19970;-65
2021/04/09 19:41:13;;;;;;;;;;;11.80;47.50;;;;;;10491477;28;20283;-65
2021/04/09 19:46:18;;;;;;;;;;;11.90;48.20;;;;;;10491581;28;19924;-65
2021/04/09 19:51:20;;;;;;;;;;;11.90;47.50;;;;;;10491234;28;20031;-65
2021/04/09 19:56:21;;;;;;;;;;;12.00;47.70;;;;;;10491598;28;19921;-65
2021/04/09 20:01:23;;;;;;;;;;;12.00;47.80;;;;;;10490870;28;19974;-65
2021/04/09 20:06:28;;;;;;;;;;;12.00;48.00;;;;;;10491056;28;19963;-65
2021/04/09 20:11:29;;;;;;;;;;;12.00;48.50;;;;;;10489995;28;20018;-65
2021/04/09 20:16:31;;;;;;;;;;;12.00;48.80;;;;;;10490168;28;19956;-65
2021/04/09 20:21:32;;;;;;;;;;;11.90;48.40;;;;;;10490259;28;19990;-65
2021/04/09 20:26:34;;;;;;;;;;;11.90;48.60;;;;;;10490679;28;19928;-65
2021/04/09 20:31:35;;;;;;;;;;;11.80;48.70;;;;;;10482830;28;19951;-65
2021/04/09 20:36:41;;;;;;;;;;;11.50;50.40;;;;;;10489406;28;19924;-65
2021/04/09 20:41:43;;;;;;;;;;;11.40;50.10;;;;;;10488938;28;20376;-65
2021/04/09 20:46:45;;;;;;;;;;;11.50;52.00;;;;;;10489152;28;20417;-65
2021/04/09 20:51:46;;;;;;;;;;;11.40;51.90;;;;;;10488982;28;19943;-65
2021/04/09 20:56:48;;;;;;;;;;;11.40;52.90;;;;;;10487557;28;19924;-65
2021/04/09 21:01:49;;;;;;;;;;;11.30;52.40;;;;;;10487990;28;19924;-65
2021/04/09 21:06:50;;;;;;;;;;;11.30;53.60;;;;;;10488258;28;19920;-65
2021/04/09 21:11:52;;;;;;;;;;;11.30;56.10;;;;;;10486318;28;19928;-65
2021/04/09 21:16:54;;;;;;;;;;;11.10;58.40;;;;;;10487733;28;19920;-65
2021/04/09 21:21:55;;;;;;;;;;;10.90;62.90;;;;;;10487637;28;19924;-65
2021/04/09 21:26:57;;;;;;;;;;;10.70;68.20;;;;;;10486958;28;20027;-65
2021/04/09 21:31:58;;;;;;;;;;;10.60;81.30;;;;;;10486801;28;20031;-65
2021/04/09 21:36:59;;;;;;;;;;;10.50;95.80;;;;;;10487323;28;20382;-65
2021/04/09 21:42:01;;;;;;;;;;;10.40;98.00;;;;;;10486676;28;19920;-65
2021/04/09 21:47:02;;;;;;;;;;;10.30;99.90;;;;;;10487047;28;19955;-65
2021/04/09 21:52:03;;;;;;;;;;;10.10;99.90;;;;;;10486347;28;20264;-65
2021/04/09 21:57:05;;;;;;;;;;;9.90;99.90;;;;;;10487207;28;19975;-65
2021/04/09 22:02:06;;;;;;;;;;;9.90;99.90;;;;;;10486745;28;20574;-65
2021/04/09 22:07:08;;;;;;;;;;;9.90;99.90;;;;;;10486307;28;19950;-65
2021/04/09 22:12:09;;;;;;;;;;;9.90;99.90;;;;;;10485770;28;19928;-65
2021/04/09 22:17:11;;;;;;;;;;;9.80;99.90;;;;;;10486161;28;20023;-65
2021/04/09 22:22:13;;;;;;;;;;;9.80;99.90;;;;;;10490320;28;19952;-65
2021/04/09 22:27:14;;;;;;;;;;;9.70;99.90;;;;;;10494472;28;20456;-65
2021/04/09 22:32:16;;;;;;;;;;;9.60;99.90;;;;;;10494827;28;20019;-65
2021/04/09 22:37:17;;;;;;;;;;;9.50;99.90;;;;;;10494388;28;20014;-65
2021/04/09 22:42:19;;;;;;;;;;;9.50;99.90;;;;;;10493666;28;19928;-65
2021/04/09 22:47:20;;;;;;;;;;;9.40;99.90;;;;;;10493884;28;19963;-65
2021/04/09 22:52:22;;;;;;;;;;;9.20;99.90;;;;;;10493042;28;19931;-65
2021/04/09 22:57:23;;;;;;;;;;;9.20;99.90;;;;;;10493651;28;19971;-65
2021/04/09 23:02:24;;;;;;;;;;;9.10;99.90;;;;;;10493501;28;20062;-65
2021/04/09 23:07:27;;;;;;;;;;;9.20;99.90;;;;;;10492889;28;20323;-64
2021/04/09 23:12:30;;;;;;;;;;;9.10;99.90;;;;;;10493065;28;20035;-65
2021/04/09 23:17:31;;;;;;;;;;;8.80;99.90;;;;;;10491392;28;20027;-65
2021/04/09 23:22:33;;;;;;;;;;;8.70;99.90;;;;;;10491283;28;19927;-65
2021/04/09 23:27:34;;;;;;;;;;;8.80;99.90;;;;;;10491849;28;19990;-65
2021/04/09 23:32:35;;;;;;;;;;;8.80;99.90;;;;;;10491313;28;19927;-65
2021/04/09 23:37:36;;;;;;;;;;;8.50;99.90;;;;;;10492484;28;19924;-64
2021/04/09 23:42:38;;;;;;;;;;;8.50;99.90;;;;;;10491575;28;20079;-65
2021/04/09 23:47:39;;;;;;;;;;;8.70;99.90;;;;;;10492256;28;20405;-65
2021/04/09 23:52:40;;;;;;;;;;;8.80;99.90;;;;;;10490779;28;19974;-65
2021/04/09 23:57:42;;;;;;;;;;;8.90;99.90;;;;;;10491336;28;19928;-65
